createdAt,value
2019-03-15T00:01:50.633Z,99639.84
2019-03-15T00:04:19.727Z,99640.06
2019-03-15T00:06:49.063Z,99637.47
2019-03-15T00:09:17.970Z,99638.80
2019-03-15T00:11:46.740Z,99639.52
2019-03-15T00:14:15.673Z,99637.05
2019-03-15T00:16:44.420Z,99642.48
2019-03-15T00:19:13.288Z,99650.19
2019-03-15T00:21:42.181Z,99656.63
2019-03-15T00:24:11.182Z,99661.36
2019-03-15T00:26:40.205Z,99660.84
2019-03-15T00:29:09.102Z,99664.76
2019-03-15T00:31:37.979Z,99669.66
2019-03-15T00:34:06.913Z,99667.45
2019-03-15T00:36:35.869Z,99673.11
2019-03-15T00:39:05.988Z,99667.77
2019-03-15T00:41:34.945Z,99677.42
2019-03-15T00:44:03.923Z,99674.36
2019-03-15T00:46:32.731Z,99672.27
2019-03-15T00:49:01.737Z,99671.41
2019-03-15T00:51:30.585Z,99666.48
2019-03-15T00:53:59.493Z,99670.08
2019-03-15T00:56:28.284Z,99669.39
2019-03-15T00:58:57.196Z,99666.62
2019-03-15T01:01:26.155Z,99668.98
2019-03-15T01:03:54.989Z,99691.39
2019-03-15T01:06:23.792Z,99695.72
2019-03-15T01:08:52.935Z,99695.34
2019-03-15T01:11:21.908Z,99685.35
2019-03-15T01:13:50.728Z,99687.45
2019-03-15T01:16:19.660Z,99675.21
2019-03-15T01:18:48.455Z,99674.13
2019-03-15T01:21:17.452Z,99673.61
2019-03-15T01:23:46.241Z,99648.91
2019-03-15T01:26:15.246Z,99680.16
2019-03-15T01:28:44.056Z,99679.77
2019-03-15T01:31:12.933Z,99683.67
2019-03-15T01:33:41.969Z,99693.54
2019-03-15T01:36:10.801Z,99691.05
2019-03-15T01:38:39.660Z,99692.00
2019-03-15T01:41:08.591Z,99654.83
2019-03-15T01:43:38.448Z,99680.36
2019-03-15T01:46:08.421Z,99689.52
2019-03-15T01:48:37.379Z,99694.52
2019-03-15T01:51:06.394Z,99687.15
2019-03-15T01:53:35.310Z,99683.78
2019-03-15T01:56:04.604Z,99679.16
2019-03-15T01:58:33.459Z,99676.07
2019-03-15T02:01:02.335Z,99675.97
2019-03-15T02:03:31.146Z,99683.48
2019-03-15T02:06:00.139Z,99675.55
2019-03-15T02:08:28.936Z,99676.50
2019-03-15T02:10:57.827Z,99673.63
2019-03-15T02:13:26.573Z,99660.59
2019-03-15T02:15:55.569Z,99660.67
2019-03-15T02:18:24.476Z,99658.11
2019-03-15T02:20:53.400Z,99656.63
2019-03-15T02:23:23.227Z,99649.61
2019-03-15T02:25:53.377Z,99657.81
2019-03-15T02:28:22.463Z,99659.23
2019-03-15T02:30:51.452Z,99657.02
2019-03-15T02:33:20.282Z,99656.23
2019-03-15T02:35:49.174Z,99651.28
2019-03-15T02:38:18.206Z,99667.90
2019-03-15T02:40:47.080Z,99655.30
2019-03-15T02:43:16.318Z,99661.02
2019-03-15T02:45:45.125Z,99667.58
2019-03-15T02:48:14.073Z,99657.48
2019-03-15T02:50:43.250Z,99663.23
2019-03-15T02:53:12.264Z,99659.19
2019-03-15T02:55:41.210Z,99673.65
2019-03-15T02:58:10.033Z,99672.94
2019-03-15T03:00:38.799Z,99676.50
2019-03-15T03:03:07.679Z,99672.49
2019-03-15T03:05:36.589Z,99662.17
2019-03-15T03:08:05.603Z,99659.69
2019-03-15T03:10:34.523Z,99665.02
2019-03-15T03:13:03.342Z,99680.71
2019-03-15T03:15:32.256Z,99671.82
2019-03-15T03:18:01.414Z,99668.02
2019-03-15T03:20:31.220Z,99681.58
2019-03-15T03:23:00.088Z,99681.58
2019-03-15T03:25:28.969Z,99675.14
2019-03-15T03:27:57.956Z,99672.10
2019-03-15T03:30:26.810Z,99672.92
2019-03-15T03:32:55.689Z,99677.44
2019-03-15T03:35:24.549Z,99678.44
2019-03-15T03:37:53.377Z,99685.27
2019-03-15T03:40:22.191Z,99689.34
2019-03-15T03:42:51.136Z,99688.63
2019-03-15T03:45:23.174Z,99690.57
2019-03-15T03:47:50.649Z,99693.34
2019-03-15T03:50:19.593Z,99694.06
2019-03-15T03:52:48.502Z,99700.94
2019-03-15T03:55:17.427Z,99689.20
2019-03-15T03:57:46.392Z,99698.91
2019-03-15T04:00:15.649Z,99698.09
2019-03-15T04:02:45.357Z,99693.42
2019-03-15T04:05:14.289Z,99691.23
2019-03-15T04:07:43.259Z,99685.13
2019-03-15T04:10:12.246Z,99681.64
2019-03-15T04:12:41.060Z,99682.20
2019-03-15T04:15:10.172Z,99683.63
2019-03-15T04:17:39.159Z,99686.18
2019-03-15T04:20:08.533Z,99687.63
2019-03-15T04:22:37.491Z,99678.02
2019-03-15T04:25:07.379Z,99674.43
2019-03-15T04:27:36.296Z,99669.75
2019-03-15T04:30:08.479Z,99670.33
2019-03-15T04:32:36.370Z,99669.56
2019-03-15T04:35:05.670Z,99668.95
2019-03-15T04:37:34.752Z,99662.90
2019-03-15T04:40:04.053Z,99658.28
2019-03-15T04:42:32.882Z,99659.61
2019-03-15T04:45:01.745Z,99669.77
2019-03-15T04:47:30.585Z,99671.72
2019-03-15T04:49:59.498Z,99667.34
2019-03-15T04:52:28.443Z,99672.79
2019-03-15T04:54:57.414Z,99669.75
2019-03-15T04:57:26.394Z,99668.82
2019-03-15T04:59:55.209Z,99670.67
2019-03-15T05:02:24.112Z,99664.30
2019-03-15T05:04:53.077Z,99666.46
2019-03-15T05:07:22.087Z,99661.73
2019-03-15T05:09:50.980Z,99657.43
2019-03-15T05:12:19.866Z,99662.12
2019-03-15T05:14:48.819Z,99660.54
2019-03-15T05:17:17.743Z,99665.19
2019-03-15T05:19:46.624Z,99672.75
2019-03-15T05:22:15.596Z,99672.95
2019-03-15T05:24:44.448Z,99674.91
2019-03-15T05:27:13.313Z,99669.27
2019-03-15T05:29:42.285Z,99670.22
2019-03-15T05:32:11.269Z,99666.53
2019-03-15T05:34:40.031Z,99664.27
2019-03-15T05:37:09.008Z,99662.59
2019-03-15T05:39:37.860Z,99665.33
2019-03-15T05:42:06.730Z,99665.95
2019-03-15T05:44:35.535Z,99659.79
2019-03-15T05:47:04.550Z,99658.56
2019-03-15T05:49:33.526Z,99667.08
2019-03-15T05:52:02.425Z,99664.48
2019-03-15T05:54:31.352Z,99666.53
2019-03-15T05:57:00.177Z,99667.86
2019-03-15T05:59:29.023Z,99660.16
2019-03-15T06:01:57.874Z,99664.23
2019-03-15T06:04:26.832Z,99665.26
2019-03-15T06:06:55.674Z,99651.61
2019-03-15T06:09:24.528Z,99652.44
2019-03-15T06:11:53.662Z,99661.97
2019-03-15T06:14:22.564Z,99657.05
2019-03-15T06:16:51.354Z,99660.33
2019-03-15T06:19:20.252Z,99656.70
2019-03-15T06:21:49.208Z,99660.53
2019-03-15T06:24:18.242Z,99655.78
2019-03-15T06:26:47.229Z,99649.05
2019-03-15T06:29:16.161Z,99647.20
2019-03-15T06:31:44.951Z,99648.23
2019-03-15T06:34:13.956Z,99648.23
2019-03-15T06:36:43.005Z,99639.81
2019-03-15T06:39:12.305Z,99645.56
2019-03-15T06:41:41.790Z,99641.45
2019-03-15T06:44:11.043Z,99642.89
2019-03-15T06:46:40.032Z,99642.89
2019-03-15T06:49:11.508Z,99633.48
2019-03-15T06:51:40.366Z,99638.38
2019-03-15T06:54:11.805Z,99641.42
2019-03-15T06:56:40.505Z,99635.34
2019-03-15T06:59:09.622Z,99629.80
2019-03-15T07:01:38.546Z,99629.21
2019-03-15T07:04:08.306Z,99629.80
2019-03-15T07:06:37.324Z,99624.26
2019-03-15T07:09:07.621Z,99626.62
2019-03-15T07:11:36.556Z,99586.64
2019-03-15T07:14:05.640Z,99614.09
2019-03-15T07:16:37.948Z,99619.26
2019-03-15T07:19:05.353Z,99612.25
2019-03-15T07:21:36.642Z,99610.51
2019-03-15T07:24:05.752Z,99608.08
2019-03-15T07:26:34.639Z,99597.06
2019-03-15T07:29:03.846Z,99594.84
2019-03-15T07:31:32.759Z,99593.06
2019-03-15T07:34:01.684Z,99594.02
2019-03-15T07:36:30.713Z,99583.45
2019-03-15T07:38:59.617Z,99582.75
2019-03-15T07:41:40.969Z,99583.70
2019-03-15T07:44:09.942Z,99576.54
2019-03-15T07:46:38.778Z,99556.03
2019-03-15T07:49:07.699Z,99562.20
2019-03-15T07:51:36.709Z,99564.14
2019-03-15T07:54:05.683Z,99556.05
2019-03-15T07:56:34.581Z,99555.23
2019-03-15T07:59:03.439Z,99557.91
2019-03-15T08:01:32.370Z,99564.59
2019-03-15T08:04:01.364Z,99562.34
2019-03-15T08:06:35.131Z,99562.03
2019-03-15T08:09:01.059Z,99560.92
2019-03-15T08:11:29.878Z,99556.48
2019-03-15T08:13:58.806Z,99550.98
2019-03-15T08:16:27.700Z,99547.66
2019-03-15T08:18:56.524Z,99550.16
2019-03-15T08:21:25.375Z,99552.00
2019-03-15T08:23:54.307Z,99554.77
2019-03-15T08:26:23.388Z,99557.14
2019-03-15T08:28:52.175Z,99553.73
2019-03-15T08:31:23.349Z,99548.83
2019-03-15T08:33:51.906Z,99546.03
2019-03-15T08:36:20.918Z,99540.17
2019-03-15T08:38:50.744Z,99543.78
2019-03-15T08:41:19.654Z,99540.90
2019-03-15T08:43:48.639Z,99540.30
2019-03-15T08:46:18.160Z,99532.15
2019-03-15T08:48:47.038Z,99523.41
2019-03-15T08:51:15.804Z,99531.23
2019-03-15T08:53:44.894Z,99525.14
2019-03-15T08:56:14.795Z,99522.75
2019-03-15T08:58:43.693Z,99522.74
2019-03-15T09:01:12.619Z,99526.41
2019-03-15T09:03:41.504Z,99519.11
2019-03-15T09:06:10.412Z,99523.80
2019-03-15T09:08:39.373Z,99517.53
2019-03-15T09:11:08.186Z,99509.48
2019-03-15T09:13:37.230Z,99512.81
2019-03-15T09:16:06.192Z,99510.06
2019-03-15T09:18:35.113Z,99507.88
2019-03-15T09:21:04.083Z,99505.13
2019-03-15T09:23:33.005Z,99508.14
2019-03-15T09:26:01.925Z,99502.31
2019-03-15T09:28:31.012Z,99505.66
2019-03-15T09:31:00.126Z,99504.50
2019-03-15T09:33:29.106Z,99495.84
2019-03-15T09:35:58.161Z,99491.45
2019-03-15T09:38:27.195Z,99479.62
2019-03-15T09:40:56.383Z,99476.08
2019-03-15T09:43:25.345Z,99469.16
2019-03-15T09:45:55.699Z,99468.98
2019-03-15T09:48:24.910Z,99471.55
2019-03-15T09:50:54.288Z,99484.08
2019-03-15T09:53:23.276Z,99482.68
2019-03-15T09:55:52.146Z,99475.34
2019-03-15T09:58:20.956Z,99481.88
2019-03-15T10:00:49.860Z,99482.17
2019-03-15T10:03:22.353Z,99477.73
2019-03-15T10:05:49.701Z,99489.27
2019-03-15T10:08:18.496Z,99470.14
2019-03-15T10:10:49.203Z,99469.19
2019-03-15T10:13:18.016Z,99473.27
2019-03-15T10:15:47.046Z,99472.55
2019-03-15T10:18:16.207Z,99469.11
2019-03-15T10:20:45.628Z,99471.49
2019-03-15T10:23:14.635Z,99471.95
2019-03-15T10:25:47.126Z,99463.02
2019-03-15T10:28:15.668Z,99467.92
2019-03-15T10:30:44.562Z,99463.02
2019-03-15T10:33:13.519Z,99467.63
2019-03-15T10:35:43.649Z,99467.05
2019-03-15T10:38:12.556Z,99465.17
2019-03-15T10:40:41.450Z,99461.50
2019-03-15T10:43:10.577Z,99459.55
2019-03-15T10:45:39.437Z,99457.59
2019-03-15T10:48:08.493Z,99454.14
2019-03-15T10:50:37.369Z,99455.45
2019-03-15T10:53:06.399Z,99454.62
2019-03-15T10:55:35.328Z,99452.88
2019-03-15T10:58:04.217Z,99457.68
2019-03-15T11:00:33.194Z,99456.77
2019-03-15T11:03:02.055Z,99453.45
2019-03-15T11:05:30.961Z,99458.58
2019-03-15T11:07:59.964Z,99455.39
2019-03-15T11:10:28.880Z,99459.55
2019-03-15T11:12:57.780Z,99450.73
2019-03-15T11:15:26.727Z,99464.39
2019-03-15T11:17:55.584Z,99452.95
2019-03-15T11:20:24.754Z,99452.59
2019-03-15T11:22:53.748Z,99455.55
2019-03-15T11:25:22.627Z,99451.31
2019-03-15T11:27:51.574Z,99444.95
2019-03-15T11:30:20.382Z,99465.28
2019-03-15T11:32:49.476Z,99463.73
2019-03-15T11:35:21.102Z,99466.14
2019-03-15T11:37:49.273Z,99465.61
2019-03-15T11:40:19.413Z,99471.65
2019-03-15T11:42:48.579Z,99460.61
2019-03-15T11:45:17.654Z,99459.58
2019-03-15T11:48:02.929Z,99461.45
2019-03-15T11:50:17.364Z,99458.44
2019-03-15T11:52:46.484Z,99464.88
2019-03-15T11:55:15.501Z,99465.44
2019-03-15T11:57:44.455Z,99458.72
2019-03-15T12:00:13.522Z,99459.81
2019-03-15T12:02:42.495Z,99458.70
2019-03-15T12:05:12.048Z,99458.74
2019-03-15T12:07:41.063Z,99466.97
2019-03-15T12:10:10.093Z,99474.38
2019-03-15T12:12:39.092Z,99473.23
2019-03-15T12:15:09.338Z,99472.08
2019-03-15T12:17:38.277Z,99470.27
2019-03-15T12:20:07.396Z,99475.27
2019-03-15T12:22:36.300Z,99469.64
2019-03-15T12:25:05.381Z,99472.76
2019-03-15T12:27:34.356Z,99473.43
2019-03-15T12:30:03.384Z,99454.78
2019-03-15T12:32:32.255Z,99463.34
2019-03-15T12:35:01.163Z,99463.66
2019-03-15T12:37:30.101Z,99463.78
2019-03-15T12:39:59.004Z,99470.71
2019-03-15T12:42:28.328Z,99468.30
2019-03-15T12:44:57.127Z,99455.61
2019-03-15T12:47:26.151Z,99470.99
2019-03-15T12:49:55.022Z,99489.08
2019-03-15T12:52:23.917Z,99469.93
2019-03-15T12:54:52.716Z,99469.84
2019-03-15T12:57:21.518Z,99475.16
2019-03-15T12:59:50.777Z,99501.61
2019-03-15T13:02:20.472Z,99471.97
2019-03-15T13:04:51.903Z,99481.14
2019-03-15T13:07:20.208Z,99478.42
2019-03-15T13:09:49.009Z,99463.59
2019-03-15T13:12:18.028Z,99465.79
2019-03-15T13:14:46.817Z,99493.62
2019-03-15T13:17:15.835Z,99465.09
2019-03-15T13:19:54.691Z,99466.66
2019-03-15T13:22:15.497Z,99474.03
2019-03-15T13:24:44.439Z,99462.13
2019-03-15T13:27:13.331Z,99466.59
2019-03-15T13:29:42.179Z,99455.33
2019-03-15T13:32:11.141Z,99481.56
2019-03-15T13:34:40.066Z,99473.03
2019-03-15T13:37:09.229Z,99440.75
2019-03-15T13:39:38.047Z,99488.53
2019-03-15T13:42:07.053Z,99453.00
2019-03-15T13:44:35.945Z,99485.14
2019-03-15T13:47:04.953Z,99485.58
2019-03-15T13:49:33.806Z,99489.09
2019-03-15T13:52:02.809Z,99484.96
2019-03-15T13:54:31.606Z,99499.52
2019-03-15T13:57:00.524Z,99514.24
2019-03-15T13:59:29.405Z,99490.14
2019-03-15T14:01:58.442Z,99486.54
2019-03-15T14:04:27.494Z,99500.28
2019-03-15T14:06:59.349Z,99495.05
2019-03-15T14:09:28.766Z,99492.80
2019-03-15T14:11:57.744Z,99488.85
2019-03-15T14:14:29.182Z,99475.97
2019-03-15T14:16:58.329Z,99474.37
2019-03-15T14:19:27.289Z,99477.69
2019-03-15T14:21:56.301Z,99494.96
2019-03-15T14:24:25.236Z,99492.80
2019-03-15T14:26:54.138Z,99494.14
2019-03-15T14:29:23.108Z,99490.88
2019-03-15T14:31:51.933Z,99489.00
2019-03-15T14:34:20.814Z,99498.94
2019-03-15T14:36:49.753Z,99505.44
2019-03-15T14:39:19.002Z,99498.78
2019-03-15T14:41:48.411Z,99492.97
2019-03-15T14:44:18.397Z,99488.00
2019-03-15T14:46:47.815Z,99483.05
2019-03-15T14:49:16.718Z,99491.85
2019-03-15T14:51:45.618Z,99493.09
2019-03-15T14:54:14.458Z,99495.95
2019-03-15T14:56:43.289Z,99498.47
2019-03-15T14:59:12.284Z,99494.56
2019-03-15T15:01:41.294Z,99482.87
2019-03-15T15:04:10.211Z,99469.83
2019-03-15T15:06:39.067Z,99487.85
2019-03-15T15:09:08.158Z,99461.84
2019-03-15T15:11:36.964Z,99491.61
2019-03-15T15:14:05.853Z,99489.48
2019-03-15T15:16:34.791Z,99489.20
2019-03-15T15:19:03.825Z,99462.94
2019-03-15T15:21:32.609Z,99483.25
2019-03-15T15:24:01.535Z,99487.52
2019-03-15T15:26:30.337Z,99487.52
2019-03-15T15:28:59.221Z,99494.75
2019-03-15T15:31:28.193Z,99499.16
2019-03-15T15:33:58.955Z,99499.16
2019-03-15T15:36:28.526Z,99499.91
2019-03-15T15:38:57.456Z,99509.59
2019-03-15T15:41:26.346Z,99528.45
2019-03-15T15:43:55.284Z,99503.64
2019-03-15T15:46:24.197Z,99499.03
2019-03-15T15:48:53.137Z,99514.59
2019-03-15T15:51:22.126Z,99506.48
2019-03-15T15:53:50.988Z,99509.14
2019-03-15T15:56:20.037Z,99504.31
2019-03-15T15:58:49.065Z,99495.14
2019-03-15T16:01:17.930Z,99506.95
2019-03-15T16:03:46.986Z,99498.55
2019-03-15T16:06:15.960Z,99524.42
2019-03-15T16:08:45.194Z,99530.83
2019-03-15T16:11:14.219Z,99490.08
2019-03-15T16:13:43.503Z,99504.89
2019-03-15T16:16:12.333Z,99510.84
2019-03-15T16:18:41.428Z,99507.13
2019-03-15T16:21:10.591Z,99519.07
2019-03-15T16:23:39.615Z,99509.61
2019-03-15T16:26:08.594Z,99517.12
2019-03-15T16:28:37.534Z,99513.30
2019-03-15T16:31:06.609Z,99507.09
2019-03-15T16:33:35.656Z,99492.88
2019-03-15T16:36:04.612Z,99503.13
2019-03-15T16:38:33.723Z,99519.28
2019-03-15T16:41:02.688Z,99513.25
2019-03-15T16:43:31.733Z,99528.35
2019-03-15T16:46:00.794Z,99509.71
2019-03-15T16:48:29.725Z,99528.84
2019-03-15T16:50:58.882Z,99529.63
2019-03-15T16:53:27.773Z,99533.34
2019-03-15T16:55:56.813Z,99517.97
2019-03-15T16:58:25.603Z,99519.48
2019-03-15T17:00:54.553Z,99522.00
2019-03-15T17:03:23.509Z,99533.06
2019-03-15T17:05:52.518Z,99522.58
2019-03-15T17:08:21.329Z,99527.39
2019-03-15T17:10:50.216Z,99524.30
2019-03-15T17:13:19.069Z,99533.73
2019-03-15T17:15:47.902Z,99525.19
2019-03-15T17:18:17.051Z,99538.94
2019-03-15T17:20:45.993Z,99538.13
2019-03-15T17:23:14.865Z,99538.13
2019-03-15T17:25:43.797Z,99542.31
2019-03-15T17:28:12.657Z,99525.87
2019-03-15T17:30:41.989Z,99531.78
2019-03-15T17:33:10.971Z,99535.75
2019-03-15T17:35:39.920Z,99529.55
2019-03-15T17:38:08.857Z,99509.92
2019-03-15T17:40:37.744Z,99532.48
2019-03-15T17:43:08.583Z,99535.08
2019-03-15T17:45:37.524Z,99527.39
2019-03-15T17:48:06.468Z,99534.02
2019-03-15T17:50:35.359Z,99530.64
2019-03-15T17:53:04.400Z,99539.66
2019-03-15T17:55:33.433Z,99541.50
2019-03-15T17:58:02.752Z,99540.80
2019-03-15T18:00:38.737Z,99544.73
2019-03-15T18:03:20.192Z,99550.64
2019-03-15T18:05:38.893Z,99568.38
2019-03-15T18:08:07.917Z,99551.34
2019-03-15T18:10:36.907Z,99554.31
2019-03-15T18:13:05.917Z,99555.38
2019-03-15T18:15:34.839Z,99575.39
2019-03-15T18:18:03.910Z,99566.14
2019-03-15T18:20:32.870Z,99581.71
2019-03-15T18:23:01.727Z,99582.36
2019-03-15T18:25:31.559Z,99588.27
2019-03-15T18:28:00.421Z,99592.06
2019-03-15T18:30:30.248Z,99561.12
2019-03-15T18:32:59.259Z,99588.03
2019-03-15T18:35:33.746Z,99597.92
2019-03-15T18:37:58.958Z,99593.52
2019-03-15T18:40:31.878Z,99591.53
2019-03-15T18:43:06.570Z,99598.79
2019-03-15T18:45:35.615Z,99606.16
2019-03-15T18:48:04.567Z,99601.42
2019-03-15T18:50:33.570Z,99597.78
2019-03-15T18:53:02.621Z,99593.22
2019-03-15T18:55:31.629Z,99596.11
2019-03-15T18:58:00.701Z,99603.36
2019-03-15T19:00:29.688Z,99604.20
2019-03-15T19:03:00.128Z,99599.42
2019-03-15T19:05:29.212Z,99599.42
2019-03-15T19:07:58.092Z,99606.15
2019-03-15T19:10:27.017Z,99600.03
2019-03-15T19:12:55.814Z,99593.58
2019-03-15T19:15:24.696Z,99600.42
2019-03-15T19:17:53.565Z,99612.47
2019-03-15T19:20:22.577Z,99601.95
2019-03-15T19:22:51.588Z,99619.67
2019-03-15T19:25:20.484Z,99622.28
2019-03-15T19:27:49.445Z,99626.41
2019-03-15T19:30:18.671Z,99626.93
2019-03-15T19:32:47.789Z,99625.63
2019-03-15T19:35:16.701Z,99636.00
2019-03-15T19:37:45.867Z,99642.64
2019-03-15T19:40:14.847Z,99634.94
2019-03-15T19:42:45.440Z,99641.83
2019-03-15T19:45:14.611Z,99647.20
2019-03-15T19:47:43.670Z,99644.88
2019-03-15T19:50:13.871Z,99650.84
2019-03-15T19:52:43.078Z,99640.21
2019-03-15T19:55:12.883Z,99648.57
2019-03-15T19:57:41.928Z,99657.41
2019-03-15T20:00:13.104Z,99652.61
2019-03-15T20:02:42.111Z,99651.09
2019-03-15T20:05:11.145Z,99657.30
2019-03-15T20:07:40.164Z,99669.45
2019-03-15T20:10:10.403Z,99658.05
2019-03-15T20:12:39.299Z,99656.99
2019-03-15T20:15:08.852Z,99671.22
2019-03-15T20:17:37.686Z,99675.38
2019-03-15T20:20:07.483Z,99683.75
2019-03-15T20:22:36.415Z,99678.84
2019-03-15T20:25:05.916Z,99680.53
2019-03-15T20:27:34.828Z,99677.72
2019-03-15T20:30:03.999Z,99693.01
2019-03-15T20:32:32.956Z,99667.44
2019-03-15T20:35:02.007Z,99682.86
2019-03-15T20:37:30.975Z,99679.97
2019-03-15T20:39:59.916Z,99691.76
2019-03-15T20:42:28.894Z,99684.05
2019-03-15T20:44:57.788Z,99688.55
2019-03-15T20:47:26.742Z,99701.43
2019-03-15T20:49:55.665Z,99708.16
2019-03-15T20:52:24.576Z,99729.41
2019-03-15T20:54:53.521Z,99715.95
2019-03-15T20:57:22.408Z,99718.94
2019-03-15T20:59:51.402Z,99734.72
2019-03-15T21:02:20.375Z,99712.31
2019-03-15T21:04:49.324Z,99724.06
2019-03-15T21:07:18.327Z,99713.01
2019-03-15T21:09:47.499Z,99733.80
2019-03-15T21:12:16.423Z,99734.41
2019-03-15T21:14:45.382Z,99736.89
2019-03-15T21:17:14.335Z,99747.88
2019-03-15T21:19:43.246Z,99747.05
2019-03-15T21:22:12.231Z,99752.39
2019-03-15T21:24:41.049Z,99748.92
2019-03-15T21:27:09.932Z,99749.69
2019-03-15T21:29:38.799Z,99741.86
2019-03-15T21:32:07.899Z,99734.59
2019-03-15T21:34:36.909Z,99746.72
2019-03-15T21:37:05.912Z,99748.83
2019-03-15T21:39:34.810Z,99734.31
2019-03-15T21:42:03.951Z,99736.71
2019-03-15T21:44:32.838Z,99728.16
2019-03-15T21:47:01.723Z,99777.58
2019-03-15T21:49:30.975Z,99741.77
2019-03-15T21:51:59.908Z,99745.81
2019-03-15T21:54:28.692Z,99755.23
2019-03-15T21:56:57.479Z,99751.52
2019-03-15T21:59:26.457Z,99759.59
2019-03-15T22:01:55.295Z,99763.30
2019-03-15T22:04:24.265Z,99764.08
2019-03-15T22:06:53.198Z,99767.98
2019-03-15T22:09:22.087Z,99761.77
2019-03-15T22:11:51.097Z,99767.98
2019-03-15T22:14:19.954Z,99779.22
2019-03-15T22:16:48.865Z,99762.78
2019-03-15T22:19:17.755Z,99767.78
2019-03-15T22:21:46.726Z,99772.06
2019-03-15T22:24:15.640Z,99785.46
2019-03-15T22:26:44.557Z,99791.22
2019-03-15T22:29:13.348Z,99787.34
2019-03-15T22:31:42.493Z,99791.91
2019-03-15T22:34:11.416Z,99794.83
2019-03-15T22:36:40.431Z,99766.92
2019-03-15T22:39:09.400Z,99788.98
2019-03-15T22:41:38.435Z,99785.41
2019-03-15T22:44:07.494Z,99789.89
2019-03-15T22:46:36.492Z,99787.81
2019-03-15T22:49:05.703Z,99786.79
2019-03-15T22:51:34.677Z,99807.46
2019-03-15T22:54:03.569Z,99794.77
2019-03-15T22:56:32.563Z,99802.92
2019-03-15T22:59:01.455Z,99803.80
2019-03-15T23:01:31.277Z,99800.91
2019-03-15T23:04:00.196Z,99800.02
2019-03-15T23:06:29.214Z,99805.69
2019-03-15T23:08:58.000Z,99806.38
2019-03-15T23:11:27.018Z,99803.23
2019-03-15T23:13:56.129Z,99813.45
2019-03-15T23:16:24.953Z,99797.42
2019-03-15T23:18:53.735Z,99812.27
2019-03-15T23:21:22.626Z,99823.48
2019-03-15T23:23:51.591Z,99815.77
2019-03-15T23:26:20.468Z,99824.95
2019-03-15T23:28:49.362Z,99816.98
2019-03-15T23:31:18.351Z,99810.98
2019-03-15T23:33:47.161Z,99801.08
2019-03-15T23:36:16.039Z,99810.91
2019-03-15T23:38:45.393Z,99795.23
2019-03-15T23:41:14.289Z,99818.77
2019-03-15T23:43:43.173Z,99808.89
2019-03-15T23:46:11.938Z,99809.36
2019-03-15T23:48:40.887Z,99769.37
2019-03-15T23:51:09.773Z,99803.51
2019-03-15T23:53:38.654Z,99811.52
2019-03-15T23:56:07.577Z,99819.20
2019-03-15T23:58:36.468Z,99821.36
